Riachinho, Brazil
Current Conditions -  °F | °C
As of 11:00 AM on Monday 22 Dec 2014 (Local Time) from SBIZ Reporting Station
Scattered Clouds Scattered Clouds  
Wind Chill: 32°   Ceiling: Unl
Heat Index: 38°   Visibility: 6mi
Dew Point: 24°   Wind: 6mph
Humidity: 62%   Direction: 90°E
Pressure: 29.91"   Gusts: NA
Location:  6.44°S, 48.14°W
Report Text: SBIZ 221400Z 09005KT 9999 FEW020 SCT100 32/24 Q1013
Loading
Personal Weather Stations






























Interactive Weather Map New forecast layout! Learn more

10-Day Weather Forecast

Advertisements
Track Severe Weather on mobile